Big Bear Station Historical Data
Daily Summary for February 7, 2017 Units:  English    Metric   Both
« Previous Day
Next Day »
Daily Weekly Monthly Yearly Custom
  High: Low: Average:
Temperature: 44.8 °F 35.2 °F 40.9 °F
Dew Point: 40.6 °F 32.0 °F 38.6 °F
Humidity: 98 % 83 % 92 %
Wind Speed: 11.4 mph 0.0 mph 4.1 mph
Wind Gust: -999.0 mph - -
Wind:- - West
Pressure: 30.23 in 30.09 in -
Precipitation: 0.03 in    
Historical Graphs
 
 
Tabular Data for February 7, 2017
Time Temperature Dew Point Pressure Wind Wind Speed Wind Gust Humidity Rainfall Rate (Hourly)
00:09 35.8 °F 32.3 °F 30.12 in South 2.7 mph -999.0 mph 87 % 0 in
00:25 35.2 °F 32.0 °F 30.12 in NW 5.3 mph -999.0 mph 88 % 0 in
00:40 35.8 °F 33.4 °F 30.13 in North 4.7 mph -999.0 mph 91 % 0 in
00:55 36.3 °F 34.7 °F 30.13 in SW 7.3 mph -999.0 mph 94 % 0 in
01:10 36.9 °F 35.9 °F 30.13 in NNW 9.9 mph -999.0 mph 96 % 0 in
01:25 37.0 °F 36.2 °F 30.13 in NNE 4.2 mph -999.0 mph 97 % 0 in
01:41 37.0 °F 36.2 °F 30.13 in NW 6.8 mph -999.0 mph 97 % 0 in
01:56 37.2 °F 36.7 °F 30.13 in NW 3.7 mph -999.0 mph 98 % 0 in
02:11 37.4 °F 36.9 °F 30.13 in NW 6.3 mph -999.0 mph 98 % 0 in
02:27 37.8 °F 37.3 °F 30.12 in NW 2.7 mph -999.0 mph 98 % 0 in
02:42 37.9 °F 37.1 °F 30.12 in SW 2.7 mph -999.0 mph 97 % 0 in
02:57 38.5 °F 37.2 °F 30.11 in NW 8.9 mph -999.0 mph 95 % 0 in
03:12 38.7 °F 37.4 °F 30.10 in NNW 8.9 mph -999.0 mph 95 % 0 in
03:27 38.5 °F 37.2 °F 30.09 in SW 3.2 mph -999.0 mph 95 % 0 in
03:43 38.5 °F 37.2 °F 30.10 in NNW 3.2 mph -999.0 mph 95 % 0 in
03:58 38.8 °F 37.8 °F 30.10 in WSW 3.7 mph -999.0 mph 96 % 0 in
04:14 38.7 °F 37.7 °F 30.10 in West 5.3 mph -999.0 mph 96 % 0 in
04:29 38.7 °F 37.7 °F 30.10 in WSW 2.7 mph -999.0 mph 96 % 0 in
04:44 38.5 °F 37.7 °F 30.10 in SW 6.3 mph -999.0 mph 97 % 0 in
04:59 38.5 °F 38.0 °F 30.11 in SW 4.2 mph -999.0 mph 98 % 0 in
05:15 38.7 °F 38.2 °F 30.12 in South 2.7 mph -999.0 mph 98 % 0 in
05:30 38.5 °F 38.0 °F 30.12 in ESE 1.7 mph -999.0 mph 98 % 0 in
05:46 38.3 °F 37.8 °F 30.12 in North 11.4 mph -999.0 mph 98 % 0 in
06:01 38.7 °F 38.2 °F 30.11 in West 4.7 mph -999.0 mph 98 % 0 in
06:16 38.7 °F 38.2 °F 30.11 in South 3.7 mph -999.0 mph 98 % 0 in
06:31 38.8 °F 38.3 °F 30.12 in East 3.2 mph -999.0 mph 98 % 0 in
06:47 39.0 °F 38.5 °F 30.12 in West 4.7 mph -999.0 mph 98 % 0 in
07:02 39.0 °F 38.5 °F 30.12 in ESE 9.4 mph -999.0 mph 98 % 0 in
07:17 39.2 °F 38.7 °F 30.14 in NW 4.7 mph -999.0 mph 98 % 0 in
07:33 39.4 °F 37.8 °F 30.14 in WNW 2.2 mph -999.0 mph 94 % 0 in
07:48 39.6 °F 37.7 °F 30.15 in SW 3.2 mph -999.0 mph 93 % 0 in
08:03 39.7 °F 38.1 °F 30.16 in NNW 3.7 mph -999.0 mph 94 % 0 in
08:18 40.3 °F 38.2 °F 30.17 in NNW 5.3 mph -999.0 mph 92 % 0 in
08:33 40.8 °F 38.9 °F 30.17 in SW 5.3 mph -999.0 mph 93 % 0 in
08:49 41.4 °F 39.3 °F 30.16 in NW 3.2 mph -999.0 mph 92 % 0 in
09:04 42.1 °F 39.4 °F 30.16 in WNW 5.3 mph -999.0 mph 90 % 0 in
09:19 42.6 °F 39.3 °F 30.17 in WNW 4.7 mph -999.0 mph 88 % 0 in
09:34 42.6 °F 39.3 °F 30.18 in East 3.7 mph -999.0 mph 88 % 0 in
09:50 43.0 °F 39.4 °F 30.18 in NW 3.7 mph -999.0 mph 87 % 0 in
10:05 43.2 °F 39.6 °F 30.18 in NW 5.3 mph -999.0 mph 87 % 0 in
10:21 43.5 °F 39.0 °F 30.19 in West 3.7 mph -999.0 mph 84 % 0 in
10:36 43.0 °F 38.8 °F 30.19 in NW 3.7 mph -999.0 mph 85 % 0 in
10:51 43.5 °F 39.6 °F 30.19 in NW 3.2 mph -999.0 mph 86 % 0 in
11:06 43.0 °F 38.8 °F 30.18 in West 6.8 mph -999.0 mph 85 % 0 in
11:21 43.5 °F 39.3 °F 30.18 in SW 4.2 mph -999.0 mph 85 % 0 in
11:37 43.0 °F 38.8 °F 30.19 in NNE 4.2 mph -999.0 mph 85 % 0 in
11:52 43.3 °F 39.1 °F 30.19 in WSW 2.7 mph -999.0 mph 85 % 0 in
12:07 44.8 °F 40.0 °F 30.18 in North 2.2 mph -999.0 mph 83 % 0 in
12:22 43.2 °F 39.9 °F 30.18 in NW 3.7 mph -999.0 mph 88 % 0 in
12:38 43.9 °F 40.3 °F 30.17 in NW 5.3 mph -999.0 mph 87 % 0 in
12:54 43.2 °F 39.9 °F 30.17 in NNW 7.3 mph -999.0 mph 88 % 0 in
13:09 42.6 °F 39.6 °F 30.16 in West 2.7 mph -999.0 mph 89 % 0 in
13:24 41.7 °F 38.7 °F 30.17 in ESE 1.7 mph -999.0 mph 89 % 0 in
13:39 42.4 °F 39.4 °F 30.17 in NNE 3.2 mph -999.0 mph 89 % 0 in
13:54 42.4 °F 40.0 °F 30.17 in SSW 1.7 mph -999.0 mph 91 % 0 in
14:10 42.6 °F 40.2 °F 30.17 in WNW 3.2 mph -999.0 mph 91 % 0 in
14:25 42.1 °F 39.9 °F 30.17 in WNW 3.7 mph -999.0 mph 92 % 0 in
14:40 42.1 °F 39.9 °F 30.17 in SSW 3.2 mph -999.0 mph 92 % 0 in
14:55 42.3 °F 39.9 °F 30.17 in NNW 4.7 mph -999.0 mph 91 % 0 in
15:10 42.1 °F 39.9 °F 30.17 in NW 2.7 mph -999.0 mph 92 % 0 in
15:26 42.1 °F 39.9 °F 30.17 in WNW 1.7 mph -999.0 mph 92 % 0 in
15:41 41.7 °F 39.8 °F 30.17 in NNW 3.7 mph -999.0 mph 93 % 0 in
15:57 41.4 °F 39.5 °F 30.17 in WNW 2.7 mph -999.0 mph 93 % 0 in
16:12 40.8 °F 39.5 °F 30.17 in SSW 4.2 mph -999.0 mph 95 % 0 in
16:27 40.3 °F 39.3 °F 30.17 in West 2.7 mph -999.0 mph 96 % 0 in
16:42 39.6 °F 38.8 °F 30.16 in SSW 2.2 mph -999.0 mph 97 % 0 in
16:57 39.6 °F 38.8 °F 30.16 in NW 2.7 mph -999.0 mph 97 % 0 in
17:13 40.5 °F 39.7 °F 30.17 in West 3.2 mph -999.0 mph 97 % 0 in
17:28 41.7 °F 39.5 °F 30.17 in WNW 4.2 mph -999.0 mph 92 % 0 in
17:44 42.8 °F 39.8 °F 30.17 in WNW 5.8 mph -999.0 mph 89 % 0 in
17:59 43.0 °F 39.4 °F 30.17 in WNW 4.2 mph -999.0 mph 87 % 0 in
18:14 42.6 °F 39.3 °F 30.18 in North 3.2 mph -999.0 mph 88 % 0 in
18:30 43.0 °F 39.7 °F 30.18 in SSW 3.2 mph -999.0 mph 88 % 0 in
18:45 42.8 °F 39.5 °F 30.19 in NW 6.3 mph -999.0 mph 88 % 0 in
19:00 43.2 °F 39.9 °F 30.19 in NW 6.3 mph -999.0 mph 88 % 0 in
19:15 43.0 °F 40.0 °F 30.19 in NW 4.7 mph -999.0 mph 89 % 0 in
19:30 43.0 °F 40.3 °F 30.19 in NW 4.7 mph -999.0 mph 90 % 0 in
19:46 43.3 °F 40.6 °F 30.20 in NW 4.7 mph -999.0 mph 90 % 0 in
20:01 43.2 °F 40.5 °F 30.20 in WNW 6.3 mph -999.0 mph 90 % 0 in
20:16 43.0 °F 40.0 °F 30.20 in NW 2.7 mph -999.0 mph 89 % 0 in
20:32 42.8 °F 39.8 °F 30.21 in NW 4.2 mph -999.0 mph 89 % 0 in
20:48 43.2 °F 39.9 °F 30.21 in West 5.8 mph -999.0 mph 88 % 0 in
21:03 43.5 °F 39.9 °F 30.21 in WNW 3.7 mph -999.0 mph 87 % 0 in
21:19 43.3 °F 40.0 °F 30.21 in NW 4.2 mph -999.0 mph 88 % 0 in
21:35 42.6 °F 39.9 °F 30.21 in NW 3.7 mph -999.0 mph 90 % 0 in
21:50 42.1 °F 39.4 °F 30.21 in West 1.7 mph -999.0 mph 90 % 0 in
22:05 42.6 °F 39.6 °F 30.21 in Calm   -999.0 mph 89 % 0 in
22:20 41.9 °F 38.0 °F 30.21 in WSW 2.2 mph -999.0 mph 86 % 0 in
22:35 42.3 °F 37.5 °F 30.22 in NW 1.1 mph -999.0 mph 83 % 0 in
22:51 42.3 °F 38.1 °F 30.22 in SE 3.2 mph -999.0 mph 85 % 0 in
23:07 40.8 °F 36.9 °F 30.22 in South 2.7 mph -999.0 mph 86 % 0 in
23:22 40.3 °F 37.9 °F 30.23 in SSW 2.7 mph -999.0 mph 91 % 0 in
23:37 41.5 °F 39.1 °F 30.23 in South 1.1 mph -999.0 mph 91 % 0 in
23:53 42.3 °F 39.9 °F 30.23 in NNW 3.7 mph -999.0 mph 91 % 0 in
Big Bear CA Weather
Compliments of Weather Underground - 1.5 mb